Time;durP1;ratioP1;P1;durP2;ratioP2;P2;SDS_P1;SDS_P2;PMS_P1;PMS_P2;Temp;Humidity;BMP_temperature;BMP_pressure;BME280_temperature;BME280_humidity;BME280_pressure;Samples;Min_cycle;Max_cycle;Signal;HPM_P1;HPM_P2
2022/01/26 00:00:18;;;;;;;38.83;16.23;;;3.60;99.90;;;;;;4972031;28;20041;-91
2022/01/26 00:05:47;;;;;;;37.05;16.35;;;3.60;99.90;;;;;;4989333;28;20038;-90
2022/01/26 00:08:16;;;;;;;41.55;15.30;;;3.60;99.90;;;;;;4975013;28;20054;-89
2022/01/26 00:10:42;;;;;;;35.95;16.42;;;3.60;99.90;;;;;;4965831;28;20395;-88
2022/01/26 00:13:22;;;;;;;42.60;17.75;;;3.50;99.90;;;;;;4985758;28;20112;-90
2022/01/26 00:15:58;;;;;;;37.47;16.17;;;3.60;99.90;;;;;;4983803;28;20039;-90
2022/01/26 00:18:30;;;;;;;36.28;16.42;;;3.60;99.90;;;;;;4997658;28;20031;-90
2022/01/26 00:21:07;;;;;;;33.95;15.90;;;3.60;99.90;;;;;;4965297;28;20051;-91
2022/01/26 00:24:07;;;;;;;35.88;17.00;;;3.70;99.90;;;;;;4968651;28;20027;-91
2022/01/26 00:27:05;;;;;;;32.58;15.68;;;3.70;99.90;;;;;;4959838;28;20046;-90
2022/01/26 00:29:48;;;;;;;41.13;16.63;;;3.70;99.90;;;;;;5172758;23;20066;-90
2022/01/26 00:40:40;;;;;;;36.97;16.77;;;3.60;99.90;;;;;;4956085;29;20031;-92
2022/01/26 00:43:21;;;;;;;34.72;15.60;;;3.60;99.90;;;;;;4973065;28;20031;-90
2022/01/26 00:46:05;;;;;;;38.60;16.85;;;3.60;99.90;;;;;;4979822;28;20102;-91
2022/01/26 00:48:32;;;;;;;39.67;16.08;;;3.60;99.90;;;;;;4966318;28;20050;-91
2022/01/26 00:51:26;;;;;;;36.53;16.42;;;3.60;99.90;;;;;;4984002;28;20145;-90
2022/01/26 00:54:06;;;;;;;35.60;16.13;;;3.60;99.90;;;;;;4983024;28;20118;-90
2022/01/26 00:56:39;;;;;;;36.95;17.67;;;3.60;99.90;;;;;;4984421;28;20023;-91
2022/01/26 00:59:10;;;;;;;38.67;17.50;;;3.60;99.90;;;;;;4976470;28;20054;-91
2022/01/26 01:01:36;;;;;;;42.25;16.90;;;3.60;99.90;;;;;;5044322;23;20045;-89
2022/01/26 01:04:03;;;;;;;36.25;16.45;;;3.60;99.90;;;;;;4995522;28;20044;-89
2022/01/26 01:06:36;;;;;;;44.08;17.63;;;3.60;99.90;;;;;;5030160;28;20033;-87
2022/01/26 01:09:03;;;;;;;35.35;16.50;;;3.60;99.90;;;;;;5029895;28;20093;-89
2022/01/26 01:11:29;;;;;;;37.15;17.35;;;3.50;99.90;;;;;;5012134;28;20052;-89
2022/01/26 01:13:56;;;;;;;40.13;16.95;;;3.60;99.90;;;;;;5029049;28;20033;-88
2022/01/26 01:16:24;;;;;;;40.90;18.42;;;3.60;99.90;;;;;;5027395;28;20057;-89
2022/01/26 01:19:05;;;;;;;39.55;16.95;;;3.60;99.90;;;;;;5008478;28;20516;-88
2022/01/26 01:29:36;;;;;;;49.55;18.98;;;3.60;99.90;;;;;;5035239;28;20169;-88
2022/01/26 01:32:11;;;;;;;42.28;17.08;;;3.60;99.90;;;;;;5005909;28;20037;-89
2022/01/26 01:34:38;;;;;;;43.15;18.13;;;3.50;99.90;;;;;;5027631;28;20108;-89
2022/01/26 01:37:14;;;;;;;43.33;19.20;;;3.50;99.90;;;;;;5008089;28;20026;-89
2022/01/26 01:39:40;;;;;;;53.85;19.40;;;3.50;99.90;;;;;;5021389;28;20072;-89
2022/01/26 01:42:07;;;;;;;41.60;18.40;;;3.50;99.90;;;;;;5038803;28;20014;-89
2022/01/26 01:44:35;;;;;;;47.80;20.17;;;3.50;99.90;;;;;;5038734;28;20021;-87
2022/01/26 01:47:01;;;;;;;49.33;19.08;;;3.50;99.90;;;;;;5021202;28;20081;-89
2022/01/26 01:49:27;;;;;;;49.45;19.30;;;3.40;99.90;;;;;;5020496;28;20094;-88
2022/01/26 01:52:01;;;;;;;47.05;19.88;;;3.40;99.90;;;;;;5036650;28;20021;-87
2022/01/26 01:54:27;;;;;;;45.40;19.33;;;3.40;99.90;;;;;;5034749;28;20030;-88
2022/01/26 01:56:57;;;;;;;50.97;20.70;;;3.40;99.90;;;;;;5033981;28;20034;-88
2022/01/26 01:59:28;;;;;;;51.80;19.95;;;3.40;99.90;;;;;;5006781;28;20094;-88
2022/01/26 02:01:55;;;;;;;46.00;20.60;;;3.40;99.90;;;;;;5019456;28;20032;-88
2022/01/26 02:04:21;;;;;;;51.97;20.40;;;3.40;99.90;;;;;;5038065;28;20025;-88
2022/01/26 02:06:47;;;;;;;52.03;20.15;;;3.40;99.90;;;;;;5031159;28;20049;-87
2022/01/26 02:09:13;;;;;;;52.58;21.05;;;3.40;99.90;;;;;;4993661;28;20030;-88
2022/01/26 02:11:51;;;;;;;52.33;19.95;;;3.40;99.90;;;;;;5019587;28;20026;-88
2022/01/26 02:14:44;;;;;;;50.25;19.45;;;3.40;99.90;;;;;;5038066;28;20026;-88
2022/01/26 02:17:20;;;;;;;53.40;21.05;;;3.30;99.90;;;;;;5020132;28;20018;-88
2022/01/26 02:55:34;;;;;;;51.28;19.27;;;3.20;99.90;;;;;;5038481;28;20018;-89
2022/01/26 03:06:33;;;;;;;53.47;19.48;;;3.30;99.90;;;;;;4998562;28;20060;-88
2022/01/26 03:09:05;;;;;;;49.03;20.17;;;3.20;99.90;;;;;;5037972;28;20022;-89
2022/01/26 03:11:35;;;;;;;51.30;19.33;;;3.20;99.90;;;;;;5037688;28;20104;-88
2022/01/26 03:14:51;;;;;;;50.25;19.52;;;3.30;99.90;;;;;;5020237;28;20010;-88
2022/01/26 03:16:53;;;;;;;54.22;20.33;;;3.30;99.90;;;;;;5025900;28;20113;-87
2022/01/26 03:19:24;;;;;;;48.75;18.48;;;3.30;99.90;;;;;;5024541;28;20032;-87
2022/01/26 03:35:57;;;;;;;;;;;3.30;99.90;;;;;;5027673;28;20026;-88
2022/01/26 03:38:41;;;;;;;48.05;18.58;;;3.30;99.90;;;;;;5005142;28;19916;-89
2022/01/26 03:43:43;;;;;;;46.05;18.85;;;3.40;99.90;;;;;;5004073;28;20034;-90
2022/01/26 03:46:08;;;;;;;48.70;20.15;;;3.40;99.90;;;;;;5005146;28;20026;-88
2022/01/26 03:48:34;;;;;;;47.33;19.13;;;3.40;99.90;;;;;;5005119;28;20022;-88
2022/01/26 03:51:01;;;;;;;51.08;19.17;;;3.50;99.90;;;;;;5005066;28;20025;-89
2022/01/26 03:53:27;;;;;;;46.80;19.17;;;3.40;99.90;;;;;;5005516;28;20022;-89
2022/01/26 03:55:53;;;;;;;43.17;18.80;;;3.40;99.90;;;;;;5021985;28;20026;-88
2022/01/26 03:58:19;;;;;;;48.00;18.67;;;3.40;99.90;;;;;;5021214;28;20083;-87
2022/01/26 04:00:45;;;;;;;54.33;20.77;;;3.40;99.90;;;;;;5003394;28;20374;-87
2022/01/26 04:03:12;;;;;;;48.72;18.67;;;3.40;99.90;;;;;;5022091;28;20026;-89
2022/01/26 04:05:38;;;;;;;49.25;18.35;;;3.30;99.90;;;;;;5004263;28;20026;-87
2022/01/26 04:08:12;;;;;;;43.70;18.13;;;3.30;99.90;;;;;;5007001;28;20053;-88
2022/01/26 04:13:19;;;;;;;51.28;19.85;;;3.30;99.90;;;;;;5036821;28;20097;-88
2022/01/26 04:15:44;;;;;;;47.55;19.02;;;3.30;99.90;;;;;;5027809;28;20026;-87
2022/01/26 04:18:15;;;;;;;45.30;17.73;;;3.30;99.90;;;;;;5027538;28;20378;-87
2022/01/26 04:20:47;;;;;;;41.00;17.05;;;3.30;99.90;;;;;;5022950;28;20039;-88
2022/01/26 04:25:41;;;;;;;47.90;18.42;;;3.20;99.90;;;;;;5021909;28;20049;-88
2022/01/26 04:28:14;;;;;;;44.00;17.90;;;3.20;99.90;;;;;;5004972;28;20026;-88
2022/01/26 04:30:40;;;;;;;47.50;18.98;;;3.20;99.90;;;;;;5023725;28;20033;-87
2022/01/26 04:33:07;;;;;;;49.55;18.35;;;3.20;99.90;;;;;;5009178;28;20022;-87
2022/01/26 04:35:34;;;;;;;48.65;18.75;;;3.20;99.90;;;;;;5036889;28;20038;-88
2022/01/26 04:40:33;;;;;;;46.80;18.90;;;3.20;99.90;;;;;;5038153;28;20025;-88
2022/01/26 04:43:04;;;;;;;50.28;19.17;;;3.20;99.90;;;;;;5039035;28;20026;-88
2022/01/26 04:45:29;;;;;;;47.80;18.85;;;3.20;99.90;;;;;;5020862;28;20116;-87
2022/01/26 04:47:55;;;;;;;46.33;17.48;;;3.20;99.90;;;;;;5021017;28;20058;-88
2022/01/26 04:50:21;;;;;;;43.10;17.85;;;3.10;99.90;;;;;;5022282;28;20030;-88
2022/01/26 04:52:47;;;;;;;46.45;18.65;;;3.10;99.90;;;;;;5007171;28;20084;-87
2022/01/26 04:55:13;;;;;;;41.22;18.48;;;3.10;99.90;;;;;;5024204;28;20057;-88
2022/01/26 04:57:39;;;;;;;46.60;18.25;;;3.10;99.90;;;;;;5028923;28;20030;-87
2022/01/26 05:00:07;;;;;;;41.17;16.13;;;3.10;99.90;;;;;;5023504;28;20030;-88
2022/01/26 05:02:34;;;;;;;42.60;16.45;;;3.10;99.90;;;;;;4987618;28;20021;-89
2022/01/26 05:04:59;;;;;;;42.70;16.80;;;3.00;99.90;;;;;;5014676;28;20086;-89
2022/01/26 05:07:25;;;;;;;43.90;18.08;;;3.00;99.90;;;;;;5000139;28;20022;-87
2022/01/26 05:09:54;;;;;;;42.03;17.35;;;3.00;99.90;;;;;;5033582;28;20037;-90
2022/01/26 05:12:19;;;;;;;45.15;17.75;;;3.00;99.90;;;;;;5005435;28;20040;-87
2022/01/26 05:14:47;;;;;;;46.25;16.98;;;3.00;99.90;;;;;;5039380;28;20021;-86
2022/01/26 05:17:14;;;;;;;46.83;17.48;;;3.00;99.90;;;;;;5035678;28;20059;-87
2022/01/26 05:19:41;;;;;;;47.00;16.92;;;3.00;99.90;;;;;;5020948;28;20030;-86
2022/01/26 05:22:07;;;;;;;38.10;15.95;;;3.00;99.90;;;;;;5038804;28;20018;-88
2022/01/26 05:24:33;;;;;;;45.85;18.02;;;3.10;99.90;;;;;;5019251;28;20064;-86
2022/01/26 05:26:58;;;;;;;40.28;16.60;;;3.00;99.90;;;;;;5019060;28;20058;-88
2022/01/26 05:29:24;;;;;;;47.28;16.50;;;3.00;99.90;;;;;;5005589;28;20034;-86
2022/01/26 05:31:50;;;;;;;45.13;16.63;;;3.00;99.90;;;;;;5029192;28;20062;-88
2022/01/26 05:34:17;;;;;;;48.72;19.00;;;3.00;99.90;;;;;;5017794;28;20022;-86
2022/01/26 05:36:43;;;;;;;45.78;16.88;;;3.10;99.90;;;;;;5036820;28;20029;-86
2022/01/26 05:39:09;;;;;;;44.42;18.35;;;3.10;99.90;;;;;;5018837;28;20092;-88
2022/01/26 05:41:37;;;;;;;42.17;17.33;;;3.00;99.90;;;;;;5026568;28;20069;-89
2022/01/26 05:44:03;;;;;;;47.85;17.70;;;3.00;99.90;;;;;;5000067;28;20037;-88
2022/01/26 05:46:37;;;;;;;41.88;17.23;;;3.10;99.90;;;;;;5028053;28;20030;-88
2022/01/26 05:49:03;;;;;;;39.83;16.35;;;3.00;99.90;;;;;;5007158;28;20033;-88
2022/01/26 05:51:32;;;;;;;41.83;17.25;;;3.10;99.90;;;;;;5008274;28;20030;-88
2022/01/26 05:53:58;;;;;;;45.42;17.63;;;3.10;99.90;;;;;;5031368;28;20026;-87
2022/01/26 05:56:24;;;;;;;45.60;17.95;;;3.00;99.90;;;;;;5030515;28;20026;-87
2022/01/26 05:58:50;;;;;;;51.85;17.88;;;3.00;99.90;;;;;;5028737;28;20044;-89
2022/01/26 06:01:16;;;;;;;46.20;16.88;;;3.00;99.90;;;;;;5014120;28;20037;-88
2022/01/26 06:03:42;;;;;;;40.63;16.05;;;3.10;99.90;;;;;;5016970;28;20089;-89
2022/01/26 06:06:08;;;;;;;50.30;17.02;;;3.10;99.90;;;;;;5019703;28;20053;-87
2022/01/26 06:08:34;;;;;;;42.97;17.13;;;3.10;99.90;;;;;;5038724;28;20041;-88
2022/01/26 06:11:01;;;;;;;43.38;17.27;;;3.10;99.90;;;;;;5032716;28;20097;-88
2022/01/26 06:13:27;;;;;;;46.63;17.30;;;3.10;99.90;;;;;;5014491;28;20044;-90
2022/01/26 06:15:53;;;;;;;42.53;17.98;;;3.10;99.90;;;;;;5017997;28;20014;-90
2022/01/26 06:18:19;;;;;;;44.17;17.08;;;3.10;99.90;;;;;;5004534;28;20022;-90
2022/01/26 06:20:45;;;;;;;37.28;16.50;;;3.10;99.90;;;;;;5020891;28;20018;-91
2022/01/26 06:23:11;;;;;;;44.63;17.23;;;3.10;99.90;;;;;;5020970;28;20021;-91
2022/01/26 06:25:37;;;;;;;48.75;18.08;;;3.00;99.90;;;;;;5005045;28;20018;-90
2022/01/26 06:28:08;;;;;;;43.95;16.45;;;3.00;99.90;;;;;;5021028;28;20025;-90
2022/01/26 06:30:36;;;;;;;44.10;17.50;;;3.00;99.90;;;;;;5001629;28;20019;-90
2022/01/26 06:33:02;;;;;;;46.38;17.20;;;3.00;99.90;;;;;;4984111;28;20093;-88
2022/01/26 06:35:28;;;;;;;48.90;19.15;;;3.00;99.90;;;;;;5018120;28;20014;-90
2022/01/26 06:37:54;;;;;;;51.03;18.15;;;3.00;99.90;;;;;;4985579;28;20106;-87
2022/01/26 06:40:20;;;;;;;51.13;18.15;;;3.10;99.90;;;;;;5018049;28;20042;-90
2022/01/26 06:43:00;;;;;;;49.58;17.10;;;3.00;99.90;;;;;;4985078;28;20010;-91
2022/01/26 06:45:30;;;;;;;45.67;17.90;;;3.10;99.90;;;;;;5001528;28;20078;-88
2022/01/26 06:48:15;;;;;;;44.13;17.75;;;3.10;99.90;;;;;;5017835;28;20037;-90
2022/01/26 06:50:41;;;;;;;;;;;3.10;99.90;;;;;;4984566;28;20018;-89
2022/01/26 06:53:07;;;;;;;47.92;17.17;;;3.10;99.90;;;;;;5017182;28;19917;-89
2022/01/26 06:55:33;;;;;;;44.88;18.08;;;3.10;99.90;;;;;;5017646;28;20014;-89
2022/01/26 06:57:59;;;;;;;52.25;17.35;;;3.00;99.90;;;;;;5009286;28;20010;-89
2022/01/26 07:00:31;;;;;;;45.80;16.40;;;3.10;99.90;;;;;;5042333;23;20025;-91
2022/01/26 07:03:04;;;;;;;48.72;17.45;;;3.10;99.90;;;;;;4985336;28;20030;-90
2022/01/26 07:05:30;;;;;;;42.13;18.13;;;3.10;99.90;;;;;;4976641;28;20030;-91
2022/01/26 07:08:07;;;;;;;;;;;;;;;;;;;;;
2022/01/26 07:13:12;;;;;;;41.08;16.98;;;3.00;99.90;;;;;;5261651;23;20054;-93
2022/01/26 07:21:28;;;;;;;48.53;16.95;;;3.10;99.90;;;;;;4991568;28;20027;-86
2022/01/26 07:23:58;;;;;;;47.90;16.58;;;3.20;99.90;;;;;;5014485;28;20022;-87
2022/01/26 07:26:28;;;;;;;39.30;15.75;;;3.10;99.90;;;;;;5017562;28;20072;-88
2022/01/26 07:29:02;;;;;;;38.33;15.70;;;3.10;99.90;;;;;;5002707;28;20093;-87
2022/01/26 07:31:28;;;;;;;43.43;15.43;;;3.10;99.90;;;;;;4993073;28;20046;-86
2022/01/26 07:33:56;;;;;;;38.70;15.80;;;3.10;99.90;;;;;;5003120;28;20033;-87
2022/01/26 07:36:24;;;;;;;37.08;14.55;;;3.00;99.90;;;;;;5016171;28;20042;-89
2022/01/26 07:38:52;;;;;;;40.17;15.73;;;3.10;99.90;;;;;;4990524;28;20042;-89
2022/01/26 07:41:23;;;;;;;36.80;15.15;;;3.10;99.90;;;;;;4995433;28;20082;-89
2022/01/26 07:43:49;;;;;;;42.13;15.73;;;3.10;99.90;;;;;;4981091;28;20046;-91
2022/01/26 07:46:19;;;;;;;36.00;15.25;;;3.10;99.90;;;;;;5001989;28;20034;-88
2022/01/26 07:48:47;;;;;;;48.53;15.95;;;3.20;99.90;;;;;;5017536;28;20049;-87
2022/01/26 07:51:13;;;;;;;34.15;14.60;;;3.20;99.90;;;;;;4982187;28;20022;-91
2022/01/26 07:53:41;;;;;;;34.95;14.38;;;3.20;99.90;;;;;;4965171;28;20030;-89
2022/01/26 07:56:07;;;;;;;46.55;16.35;;;3.20;99.90;;;;;;4983080;28;20037;-90
2022/01/26 07:58:34;;;;;;;44.05;16.60;;;3.20;99.90;;;;;;5000491;28;20018;-91
2022/01/26 08:03:42;;;;;;;39.67;15.68;;;3.20;99.90;;;;;;5252973;22;20058;-90
2022/01/26 08:06:15;;;;;;;39.17;15.95;;;3.20;99.90;;;;;;5034109;28;20113;-90
2022/01/26 08:08:42;;;;;;;36.47;15.18;;;3.20;99.90;;;;;;5020514;28;20037;-90
2022/01/26 08:11:10;;;;;;;36.63;14.15;;;3.30;99.90;;;;;;5021559;28;20044;-90
2022/01/26 08:13:39;;;;;;;34.47;14.40;;;3.30;99.90;;;;;;5043327;28;20495;-90
2022/01/26 08:16:08;;;;;;;39.08;14.85;;;3.30;99.90;;;;;;5014939;28;20033;-88
2022/01/26 08:18:34;;;;;;;37.65;15.00;;;3.30;99.90;;;;;;5012256;28;20037;-90
2022/01/26 08:21:06;;;;;;;41.08;16.38;;;3.30;99.90;;;;;;5025406;28;20022;-88
2022/01/26 08:23:34;;;;;;;39.97;15.20;;;3.30;99.90;;;;;;5003840;28;20056;-90
2022/01/26 08:26:01;;;;;;;39.38;15.65;;;3.30;99.90;;;;;;5033975;28;20979;-90
2022/01/26 08:28:39;;;;;;;37.58;14.75;;;3.20;99.90;;;;;;5012381;28;20063;-87
2022/01/26 08:31:06;;;;;;;39.63;14.57;;;3.20;99.90;;;;;;5015130;28;20025;-90
2022/01/26 08:33:35;;;;;;;34.60;13.63;;;3.30;99.90;;;;;;5019250;28;20018;-90
2022/01/26 08:36:07;;;;;;;40.50;14.40;;;3.30;99.90;;;;;;5022516;28;20029;-88
2022/01/26 08:38:34;;;;;;;36.15;16.17;;;3.30;99.90;;;;;;5016112;28;20105;-91
2022/01/26 08:41:00;;;;;;;41.28;15.98;;;3.40;99.90;;;;;;5035338;28;20040;-90
2022/01/26 08:43:27;;;;;;;38.65;15.52;;;3.50;99.90;;;;;;5024479;28;20092;-90
2022/01/26 08:45:54;;;;;;;36.53;15.07;;;3.50;99.90;;;;;;5021236;28;20075;-91
2022/01/26 08:48:22;;;;;;;39.17;15.88;;;3.60;99.90;;;;;;5033933;28;20033;-89
2022/01/26 08:50:48;;;;;;;38.38;15.77;;;3.60;99.90;;;;;;5025045;28;20125;-90
2022/01/26 08:53:17;;;;;;;41.60;16.20;;;3.70;99.90;;;;;;5006159;28;20022;-90
2022/01/26 08:55:43;;;;;;;36.50;14.77;;;3.80;99.90;;;;;;5013901;28;20006;-88
2022/01/26 08:58:09;;;;;;;41.08;15.88;;;3.80;99.90;;;;;;5013950;28;20030;-89
2022/01/26 09:00:37;;;;;;;39.92;16.30;;;3.80;99.90;;;;;;5028343;28;20081;-89
2022/01/26 09:03:04;;;;;;;42.50;15.35;;;3.70;99.90;;;;;;5025501;28;20018;-90
2022/01/26 09:05:30;;;;;;;37.50;15.02;;;3.80;99.90;;;;;;5042066;28;20038;-90
2022/01/26 09:07:59;;;;;;;41.47;15.23;;;3.80;99.90;;;;;;5134080;23;20042;-91
2022/01/26 09:10:28;;;;;;;38.55;14.90;;;3.90;99.90;;;;;;5003058;28;20056;-90
2022/01/26 09:12:55;;;;;;;38.20;13.93;;;3.90;99.90;;;;;;5242800;23;20046;-89
2022/01/26 09:15:28;;;;;;;34.72;13.65;;;4.00;99.90;;;;;;5005276;28;20033;-89
2022/01/26 09:17:57;;;;;;;33.03;14.10;;;4.00;99.90;;;;;;5022668;28;20073;-91
2022/01/26 09:20:23;;;;;;;41.60;13.82;;;4.00;99.90;;;;;;5130295;23;20061;-91
2022/01/26 09:22:49;;;;;;;35.55;14.82;;;4.00;99.90;;;;;;5014242;28;20098;-90
2022/01/26 09:25:16;;;;;;;36.60;14.38;;;4.00;99.90;;;;;;5002449;28;20035;-92
2022/01/26 09:27:42;;;;;;;40.80;14.68;;;4.00;99.90;;;;;;5002387;28;20048;-91
2022/01/26 09:30:09;;;;;;;42.03;15.63;;;4.10;99.90;;;;;;4986705;28;20030;-92
2022/01/26 09:32:36;;;;;;;38.13;13.65;;;4.00;99.90;;;;;;5001765;28;20017;-91
2022/01/26 09:35:04;;;;;;;44.08;14.43;;;4.00;99.90;;;;;;4999201;28;20035;-90
2022/01/26 09:37:30;;;;;;;37.13;13.60;;;4.00;99.90;;;;;;5017723;28;20046;-92
2022/01/26 09:39:56;;;;;;;36.03;13.40;;;4.10;99.90;;;;;;5002866;28;20025;-92
2022/01/26 09:42:23;;;;;;;31.77;13.18;;;4.10;99.90;;;;;;5002407;28;20020;-92
2022/01/26 09:44:49;;;;;;;38.72;13.85;;;4.00;99.90;;;;;;5002707;28;20018;-92
2022/01/26 09:47:16;;;;;;;33.38;13.38;;;4.00;99.90;;;;;;5002504;28;20030;-90
2022/01/26 09:49:43;;;;;;;40.55;14.52;;;4.10;99.90;;;;;;5011058;28;20030;-89
2022/01/26 09:52:31;;;;;;;39.58;14.63;;;3.90;99.90;;;;;;5093847;23;20045;-89
2022/01/26 09:55:02;;;;;;;38.63;13.68;;;3.90;99.90;;;;;;5007636;28;20057;-90
2022/01/26 09:57:34;;;;;;;37.63;14.65;;;3.90;99.90;;;;;;5020693;28;20056;-89
2022/01/26 10:00:00;;;;;;;37.50;13.02;;;4.00;99.90;;;;;;4990432;28;20053;-91
2022/01/26 10:02:31;;;;;;;33.60;12.98;;;4.00;99.90;;;;;;5012522;28;20513;-91
2022/01/26 10:05:07;;;;;;;36.35;13.80;;;4.00;99.90;;;;;;5011456;28;20052;-92
2022/01/26 10:15:57;;;;;;;32.17;12.57;;;3.90;99.90;;;;;;5005788;28;20064;-89
2022/01/26 10:18:29;;;;;;;35.45;13.75;;;3.90;99.90;;;;;;4988394;28;20042;-91
2022/01/26 10:23:36;;;;;;;30.45;12.40;;;3.90;99.90;;;;;;5009867;28;20053;-91
2022/01/26 10:26:12;;;;;;;35.25;13.27;;;4.00;99.90;;;;;;5010729;28;20130;-92
2022/01/26 10:28:47;;;;;;;37.97;13.00;;;4.00;99.90;;;;;;4978316;28;20061;-90
2022/01/26 10:31:14;;;;;;;36.70;12.90;;;4.00;99.90;;;;;;4968394;28;20031;-91
2022/01/26 10:33:51;;;;;;;33.05;13.45;;;4.00;99.90;;;;;;4974096;28;20031;-90
2022/01/26 10:36:17;;;;;;;31.08;12.52;;;4.00;99.90;;;;;;4995956;28;20017;-90
2022/01/26 10:38:44;;;;;;;29.15;12.75;;;4.10;99.90;;;;;;4967984;28;20015;-90
2022/01/26 10:41:21;;;;;;;29.73;11.10;;;4.00;99.90;;;;;;5007587;23;20065;-93
2022/01/26 10:43:54;;;;;;;30.05;11.65;;;4.00;99.90;;;;;;5003122;28;20025;-89
2022/01/26 10:46:43;;;;;;;29.45;11.50;;;4.00;99.90;;;;;;5145817;23;20050;-91
2022/01/26 10:50:30;;;;;;;37.67;13.07;;;4.00;99.90;;;;;;5000998;28;20085;-90
2022/01/26 10:52:35;;;;;;;30.75;13.02;;;4.10;99.90;;;;;;5398371;23;20077;-93
2022/01/26 10:55:06;;;;;;;31.45;12.18;;;4.10;99.90;;;;;;4977681;28;20035;-90
2022/01/26 10:57:34;;;;;;;27.75;12.02;;;4.20;99.90;;;;;;4981619;28;20030;-89
2022/01/26 11:00:05;;;;;;;32.55;12.25;;;4.00;99.90;;;;;;4998049;28;20046;-91
2022/01/26 11:02:38;;;;;;;30.73;11.02;;;3.90;99.90;;;;;;5003356;28;20019;-93
2022/01/26 11:07:41;;;;;;;34.92;11.85;;;4.00;99.90;;;;;;4702038;26;20061;-92
2022/01/26 11:10:09;;;;;;;33.88;10.82;;;4.10;99.90;;;;;;4985488;28;20030;-90
2022/01/26 11:12:38;;;;;;;27.25;11.35;;;4.00;99.90;;;;;;4982436;28;20015;-89
2022/01/26 11:15:10;;;;;;;28.13;11.80;;;4.00;99.90;;;;;;4995625;28;20075;-90
2022/01/26 11:17:40;;;;;;;27.48;10.57;;;3.90;99.90;;;;;;5000786;28;20042;-88
2022/01/26 11:20:35;;;;;;;29.73;11.15;;;4.00;99.90;;;;;;4980090;28;20498;-89
2022/01/26 11:23:03;;;;;;;26.88;11.13;;;4.10;99.90;;;;;;5009542;28;20038;-88
2022/01/26 11:25:38;;;;;;;26.48;11.45;;;4.10;99.90;;;;;;4986912;28;20061;-89
2022/01/26 11:28:21;;;;;;;25.92;10.75;;;4.20;99.90;;;;;;4995185;28;20034;-87
2022/01/26 11:30:48;;;;;;;25.85;11.10;;;4.20;99.90;;;;;;4971891;28;20019;-87
2022/01/26 11:33:19;;;;;;;30.55;11.27;;;4.30;99.90;;;;;;5018931;23;20107;-87
2022/01/26 11:35:48;;;;;;;30.50;11.35;;;4.30;99.90;;;;;;5033986;28;20044;-85
2022/01/26 11:46:59;;;;;;;23.42;10.38;;;4.40;99.90;;;;;;5020459;28;20030;-84
2022/01/26 11:49:37;;;;;;;20.42;10.05;;;4.40;99.90;;;;;;4998454;28;20018;-84
2022/01/26 11:52:05;;;;;;;24.20;9.88;;;4.30;99.90;;;;;;5017806;28;20037;-85
2022/01/26 11:54:51;;;;;;;25.75;10.45;;;4.30;99.90;;;;;;5040272;28;20165;-85
2022/01/26 11:57:20;;;;;;;21.23;9.43;;;4.30;99.90;;;;;;5005483;28;20030;-86
2022/01/26 11:59:58;;;;;;;23.45;9.82;;;4.40;99.90;;;;;;5030158;28;20046;-87
2022/01/26 12:02:49;;;;;;;23.00;9.90;;;4.40;99.90;;;;;;5013073;28;20090;-88
2022/01/26 12:05:15;;;;;;;21.42;9.88;;;4.30;99.90;;;;;;5007539;28;20030;-86
2022/01/26 12:07:55;;;;;;;22.45;9.50;;;4.30;99.90;;;;;;4997793;28;20035;-85
2022/01/26 12:10:28;;;;;;;22.08;10.48;;;4.20;99.90;;;;;;5005341;28;20030;-87
2022/01/26 12:13:10;;;;;;;24.17;10.05;;;4.20;99.90;;;;;;5003421;28;20058;-87
2022/01/26 12:16:05;;;;;;;23.30;9.15;;;4.30;99.90;;;;;;5014839;28;20099;-87
2022/01/26 12:32:52;;;;;;;21.70;9.20;;;4.50;99.90;;;;;;5013276;28;20080;-90
2022/01/26 12:38:17;;;;;;;24.00;9.82;;;4.40;99.90;;;;;;5026699;28;20019;-91
2022/01/26 12:43:45;;;;;;;24.15;10.73;;;4.40;99.90;;;;;;5008344;28;20033;-90
2022/01/26 12:46:14;;;;;;;25.17;9.20;;;4.40;99.90;;;;;;5015838;28;20101;-90
2022/01/26 12:48:46;;;;;;;26.25;10.60;;;4.50;99.90;;;;;;4997978;28;20065;-91
2022/01/26 12:51:12;;;;;;;23.70;8.60;;;4.60;99.90;;;;;;5014751;28;20038;-91
2022/01/26 12:53:40;;;;;;;22.60;9.73;;;4.50;99.90;;;;;;5022272;28;20030;-90
2022/01/26 12:56:12;;;;;;;23.23;8.98;;;4.60;99.90;;;;;;5020956;28;20018;-91
2022/01/26 12:58:40;;;;;;;22.27;9.07;;;4.60;99.90;;;;;;5017178;28;20098;-90
2022/01/26 13:01:11;;;;;;;22.60;9.63;;;4.60;99.90;;;;;;5087857;23;20084;-86
2022/01/26 13:03:41;;;;;;;23.45;9.20;;;4.50;99.90;;;;;;5021256;28;20030;-84
2022/01/26 13:06:11;;;;;;;28.17;9.38;;;4.60;99.90;;;;;;5026146;28;20030;-86
2022/01/26 13:08:51;;;;;;;23.48;9.48;;;4.50;99.90;;;;;;5022007;28;20022;-86
2022/01/26 13:11:35;;;;;;;29.27;10.38;;;4.50;99.90;;;;;;5014327;28;20031;-85
2022/01/26 13:14:29;;;;;;;22.20;9.25;;;4.50;99.90;;;;;;5029702;28;20077;-84
2022/01/26 13:20:13;;;;;;;21.17;9.02;;;4.50;99.90;;;;;;5019175;28;20022;-85
2022/01/26 13:25:47;;;;;;;20.52;8.45;;;4.50;99.90;;;;;;5027706;28;20025;-86
2022/01/26 13:45:23;;;;;;;;;;;4.50;99.90;;;;;;5001260;28;20098;-87
2022/01/26 13:50:29;;;;;;;21.80;9.18;;;4.50;99.90;;;;;;4996067;28;20114;-85
2022/01/26 13:58:27;;;;;;;21.20;10.45;;;4.50;99.90;;;;;;5010098;28;20453;-86
2022/01/26 14:01:03;;;;;;;24.38;9.45;;;4.50;99.90;;;;;;4982221;28;20502;-85
2022/01/26 14:03:32;;;;;;;28.23;10.45;;;4.50;99.90;;;;;;5006635;28;20041;-86
2022/01/26 14:05:58;;;;;;;22.70;8.85;;;4.50;99.90;;;;;;4972616;28;20010;-85
2022/01/26 14:08:24;;;;;;;19.88;8.70;;;4.40;99.90;;;;;;4985847;28;20045;-85
2022/01/26 14:10:50;;;;;;;23.00;9.65;;;4.30;99.90;;;;;;5009049;28;20018;-86
2022/01/26 14:13:19;;;;;;;21.10;9.45;;;4.30;99.90;;;;;;5017210;28;20486;-86
2022/01/26 14:15:47;;;;;;;21.88;9.57;;;4.30;99.90;;;;;;4988986;28;20026;-86
2022/01/26 14:23:43;;;;;;;25.90;8.98;;;4.30;99.90;;;;;;5008952;28;20088;-87
2022/01/26 14:26:10;;;;;;;21.38;8.63;;;4.20;99.90;;;;;;5001633;28;20045;-85
2022/01/26 14:28:36;;;;;;;21.77;9.55;;;4.10;99.90;;;;;;5011350;28;20041;-86
2022/01/26 14:55:40;;;;;;;18.92;9.18;;;4.00;99.90;;;;;;5011519;28;20022;-86
2022/01/26 15:08:52;;;;;;;23.92;10.02;;;4.00;99.90;;;;;;5000150;28;20093;-86
2022/01/26 15:41:05;;;;;;;28.40;11.27;;;4.00;99.90;;;;;;5000093;28;20031;-85
2022/01/26 15:43:47;;;;;;;28.20;11.93;;;4.00;99.90;;;;;;4998722;28;20031;-86
2022/01/26 15:49:30;;;;;;;27.40;11.10;;;3.90;99.90;;;;;;4996739;28;20085;-84
2022/01/26 15:52:43;;;;;;;31.35;12.55;;;3.90;99.90;;;;;;4996513;28;20285;-88
2022/01/26 15:57:50;;;;;;;24.13;11.50;;;3.90;99.90;;;;;;5019003;28;20061;-85
2022/01/26 16:16:41;;;;;;;28.60;12.60;;;3.90;99.90;;;;;;5005921;28;20031;-85
2022/01/26 16:38:14;;;;;;;31.75;13.65;;;3.70;99.90;;;;;;5005176;28;20114;-86
2022/01/26 18:26:50;;;;;;;27.35;11.48;;;3.50;99.90;;;;;;5010445;28;20037;-87
2022/01/26 18:32:14;;;;;;;30.50;12.10;;;3.50;99.90;;;;;;4991279;28;20030;-87
2022/01/26 18:51:07;;;;;;;31.17;11.60;;;3.70;99.90;;;;;;4998545;28;20106;-87
2022/01/26 18:53:33;;;;;;;27.65;10.82;;;3.70;99.90;;;;;;4964582;28;20026;-87
2022/01/26 18:55:59;;;;;;;28.58;10.85;;;3.70;99.90;;;;;;4981173;28;20148;-87
2022/01/26 18:58:25;;;;;;;23.70;10.98;;;3.70;99.90;;;;;;4982675;28;20026;-88
2022/01/26 19:00:50;;;;;;;27.85;11.70;;;3.70;99.90;;;;;;5002288;28;20035;-87
2022/01/26 19:03:16;;;;;;;29.33;11.70;;;3.70;99.90;;;;;;5060072;23;20033;-86
2022/01/26 19:05:44;;;;;;;27.50;11.35;;;3.70;99.90;;;;;;5019415;28;20065;-86
2022/01/26 19:08:10;;;;;;;27.02;11.52;;;3.70;99.90;;;;;;5036971;28;20037;-86
2022/01/26 19:10:36;;;;;;;31.58;12.90;;;3.70;99.90;;;;;;5037225;28;20018;-89
2022/01/26 19:13:02;;;;;;;26.60;11.02;;;3.60;99.90;;;;;;5051794;28;20048;-86
2022/01/26 19:15:31;;;;;;;32.45;12.02;;;3.60;99.90;;;;;;5055967;28;20021;-87
2022/01/26 19:25:56;;;;;;;23.90;11.15;;;3.70;99.90;;;;;;5038711;28;20520;-87
2022/01/26 19:28:31;;;;;;;31.63;12.30;;;3.70;99.90;;;;;;5047120;28;20025;-86
2022/01/26 19:44:44;;;;;;;30.88;11.38;;;3.70;99.90;;;;;;5050794;28;19957;-86
2022/01/26 19:52:21;;;;;;;26.27;11.63;;;3.70;99.90;;;;;;5052903;28;20013;-88
2022/01/26 19:54:49;;;;;;;29.27;12.13;;;3.70;99.90;;;;;;5036872;28;20044;-86
2022/01/26 19:57:18;;;;;;;29.48;12.30;;;3.70;99.90;;;;;;5035704;28;20025;-87
2022/01/26 19:59:47;;;;;;;28.38;11.70;;;3.70;99.90;;;;;;5040097;28;20050;-89
2022/01/26 20:02:13;;;;;;;32.97;12.48;;;3.70;99.90;;;;;;5050042;28;20041;-89
2022/01/26 20:04:39;;;;;;;31.48;12.00;;;3.80;99.90;;;;;;5026800;28;20013;-88
2022/01/26 20:07:18;;;;;;;27.90;12.15;;;3.70;99.90;;;;;;5042036;28;20045;-90
2022/01/26 20:09:54;;;;;;;37.92;12.98;;;3.70;99.90;;;;;;5043520;28;20024;-85
2022/01/26 20:12:41;;;;;;;37.38;12.70;;;3.70;99.90;;;;;;5026062;28;20030;-90